Time;durP1;ratioP1;P1;durP2;ratioP2;P2;SDS_P1;SDS_P2;PMS_P1;PMS_P2;Temp;Humidity;BMP_temperature;BMP_pressure;BME280_temperature;BME280_humidity;BME280_pressure;Samples;Min_cycle;Max_cycle;Signal;HPM_P1;HPM_P2
2024/01/01 00:00:39;;;;;;;5.35;2.05;;;8.50;99.90;;;;;;5010712;28;20021;-73
2024/01/01 00:03:05;;;;;;;10.25;2.28;;;8.50;99.90;;;;;;5044613;28;20036;-72
2024/01/01 00:05:31;;;;;;;14.27;2.85;;;8.50;99.90;;;;;;5043761;28;20069;-72
2024/01/01 00:07:57;;;;;;;5.05;3.25;;;8.50;99.90;;;;;;5042772;28;20188;-72
2024/01/01 00:10:22;;;;;;;10.15;2.95;;;8.50;99.90;;;;;;5043615;28;20022;-71
2024/01/01 00:12:48;;;;;;;9.82;2.88;;;8.50;99.90;;;;;;5026695;28;20302;-71
2024/01/01 00:15:14;;;;;;;10.63;3.70;;;8.50;99.90;;;;;;5044178;28;20087;-71
2024/01/01 00:17:40;;;;;;;3.63;2.92;;;8.50;99.90;;;;;;5044152;28;20085;-72
2024/01/01 00:20:08;;;;;;;5.10;2.25;;;8.40;99.90;;;;;;5043229;28;20040;-72
2024/01/01 00:22:35;;;;;;;9.50;2.78;;;8.30;99.90;;;;;;5026512;28;20223;-72
2024/01/01 00:25:00;;;;;;;4.43;2.65;;;8.20;99.90;;;;;;5044141;28;20303;-71
2024/01/01 00:27:26;;;;;;;11.75;3.40;;;7.90;99.90;;;;;;5042281;28;20064;-71
2024/01/01 00:29:52;;;;;;;10.10;4.07;;;7.70;99.90;;;;;;5024923;28;20037;-72
2024/01/01 00:32:18;;;;;;;9.77;2.85;;;7.50;99.90;;;;;;5043158;28;20032;-70
2024/01/01 00:34:45;;;;;;;7.18;3.05;;;7.20;99.90;;;;;;5026468;28;20025;-71
2024/01/01 00:37:11;;;;;;;12.80;3.15;;;7.10;99.90;;;;;;5009711;28;20379;-72
2024/01/01 00:39:38;;;;;;;7.95;3.13;;;7.00;99.90;;;;;;5041519;28;20040;-72
2024/01/01 00:42:04;;;;;;;5.15;2.17;;;6.90;99.90;;;;;;5043694;28;20333;-73
2024/01/01 00:44:31;;;;;;;15.60;2.65;;;6.80;99.90;;;;;;5009862;28;20079;-73
2024/01/01 00:46:58;;;;;;;7.15;4.07;;;6.80;99.90;;;;;;5009883;28;20030;-75
2024/01/01 00:49:24;;;;;;;13.75;3.28;;;6.70;99.90;;;;;;5024759;28;20060;-73
2024/01/01 00:51:50;;;;;;;6.00;2.65;;;6.60;99.90;;;;;;5042714;28;20072;-73
2024/01/01 00:54:16;;;;;;;8.18;3.45;;;6.70;99.90;;;;;;5009831;28;20025;-73
2024/01/01 00:56:42;;;;;;;9.73;3.13;;;6.60;99.90;;;;;;5025965;28;20048;-73
2024/01/01 00:59:08;;;;;;;5.43;2.47;;;6.60;99.90;;;;;;5040947;28;20017;-73
2024/01/01 01:01:34;;;;;;;15.27;4.97;;;6.50;99.90;;;;;;5009719;28;20198;-73
2024/01/01 01:04:00;;;;;;;6.93;3.97;;;6.40;99.90;;;;;;5009852;28;20021;-73
2024/01/01 01:06:26;;;;;;;6.20;4.25;;;6.50;99.90;;;;;;5025887;28;20021;-74
2024/01/01 01:08:52;;;;;;;9.57;4.30;;;6.40;99.90;;;;;;5024191;28;20242;-73
2024/01/01 01:11:18;;;;;;;5.22;2.90;;;6.40;99.90;;;;;;5025530;28;20026;-73
2024/01/01 01:13:44;;;;;;;11.60;3.72;;;6.40;99.90;;;;;;5009684;28;20029;-72
2024/01/01 01:16:10;;;;;;;4.18;3.78;;;6.40;99.90;;;;;;4993453;28;20318;-73
2024/01/01 01:18:36;;;;;;;2.95;2.35;;;6.30;99.90;;;;;;5008156;28;20025;-72
2024/01/01 01:21:02;;;;;;;6.47;3.40;;;6.30;99.90;;;;;;5025562;28;20052;-72
2024/01/01 01:23:28;;;;;;;2.88;2.63;;;6.30;99.90;;;;;;5042987;28;20033;-72
2024/01/01 01:25:54;;;;;;;9.13;4.00;;;6.40;99.90;;;;;;5043012;28;20029;-73
2024/01/01 01:28:24;;;;;;;4.28;3.60;;;6.40;99.90;;;;;;5007828;28;20017;-73
2024/01/01 01:30:50;;;;;;;16.13;5.10;;;6.40;99.90;;;;;;5009430;28;20314;-73
2024/01/01 01:33:16;;;;;;;11.35;4.40;;;6.40;99.90;;;;;;5020034;28;20068;-72
2024/01/01 01:35:42;;;;;;;11.45;4.75;;;6.40;99.90;;;;;;5023153;28;20033;-74
2024/01/01 01:38:08;;;;;;;17.10;3.83;;;6.40;99.90;;;;;;4990987;28;20044;-72
2024/01/01 01:40:34;;;;;;;9.95;3.88;;;6.40;99.90;;;;;;5008904;28;20029;-72
2024/01/01 01:43:00;;;;;;;7.88;3.03;;;6.40;99.90;;;;;;5042000;28;20254;-72
2024/01/01 01:45:26;;;;;;;15.10;5.47;;;6.50;99.90;;;;;;5025655;28;20026;-72
2024/01/01 01:47:52;;;;;;;11.07;4.15;;;6.50;99.90;;;;;;5024950;28;20180;-73
2024/01/01 01:50:20;;;;;;;34.53;6.85;;;6.50;99.90;;;;;;5041067;28;20033;-73
2024/01/01 01:52:48;;;;;;;10.30;3.70;;;6.50;99.90;;;;;;5041304;28;20033;-71
2024/01/01 01:55:15;;;;;;;16.40;4.00;;;6.50;99.90;;;;;;5041310;28;20072;-73
2024/01/01 01:57:43;;;;;;;18.77;4.60;;;6.50;99.90;;;;;;5042962;28;20028;-72
2024/01/01 02:00:10;;;;;;;8.43;3.05;;;6.50;99.90;;;;;;5023969;28;20021;-74
2024/01/01 02:02:39;;;;;;;16.13;3.67;;;6.50;99.90;;;;;;5024364;28;20021;-72
2024/01/01 02:05:05;;;;;;;6.78;3.72;;;6.50;99.90;;;;;;5024948;28;20329;-72
2024/01/01 02:07:31;;;;;;;10.10;4.03;;;6.60;99.90;;;;;;5025001;28;20106;-72
2024/01/01 02:09:57;;;;;;;15.27;3.45;;;6.60;99.90;;;;;;5023123;28;20024;-72
2024/01/01 02:12:23;;;;;;;17.05;5.47;;;6.60;99.90;;;;;;5008764;28;20032;-72
2024/01/01 02:14:49;;;;;;;8.80;3.63;;;6.50;99.90;;;;;;5024967;28;20057;-74
2024/01/01 02:17:17;;;;;;;16.17;4.10;;;6.50;99.90;;;;;;5042413;28;20218;-72
2024/01/01 02:19:43;;;;;;;12.15;3.13;;;6.50;99.90;;;;;;5029449;28;20022;-72
2024/01/01 02:22:09;;;;;;;6.65;2.40;;;6.50;99.90;;;;;;5021656;28;20021;-73
2024/01/01 02:24:35;;;;;;;13.68;4.22;;;6.50;99.90;;;;;;5004964;28;20022;-71
2024/01/01 02:27:00;;;;;;;14.20;4.00;;;6.60;99.90;;;;;;5023517;28;20068;-72
2024/01/01 02:29:26;;;;;;;14.77;4.03;;;6.60;99.90;;;;;;5037248;28;20362;-72
2024/01/01 02:31:53;;;;;;;11.75;3.28;;;6.60;99.90;;;;;;5028884;28;20024;-72
2024/01/01 02:34:18;;;;;;;11.90;4.90;;;6.60;99.90;;;;;;5028917;28;20013;-71
2024/01/01 02:36:44;;;;;;;6.72;2.83;;;6.60;99.90;;;;;;5045222;28;20345;-71
2024/01/01 02:39:10;;;;;;;6.07;2.78;;;6.60;99.90;;;;;;5043691;28;20018;-73
2024/01/01 02:41:37;;;;;;;8.20;2.97;;;6.60;99.90;;;;;;5028624;28;20040;-72
2024/01/01 02:44:04;;;;;;;5.15;4.30;;;6.60;99.90;;;;;;5045310;28;20028;-71
2024/01/01 02:46:29;;;;;;;6.50;4.10;;;6.60;99.90;;;;;;5011957;28;20032;-72
2024/01/01 02:48:55;;;;;;;11.48;4.00;;;6.60;99.90;;;;;;5007274;28;20029;-72
2024/01/01 02:51:21;;;;;;;16.98;4.88;;;6.60;99.90;;;;;;5011773;28;20324;-73
2024/01/01 02:53:47;;;;;;;14.25;4.40;;;6.60;99.90;;;;;;5045884;28;20051;-71
2024/01/01 02:56:25;;;;;;;13.85;3.65;;;6.60;99.90;;;;;;5011625;28;20041;-71
2024/01/01 02:58:52;;;;;;;8.00;3.65;;;6.60;99.90;;;;;;5044816;28;20018;-71
2024/01/01 03:01:18;;;;;;;9.05;3.55;;;6.60;99.90;;;;;;5044869;28;20279;-71
2024/01/01 03:03:45;;;;;;;8.43;4.25;;;6.70;99.90;;;;;;5028437;28;20029;-71
2024/01/01 03:06:10;;;;;;;16.38;4.45;;;6.70;99.90;;;;;;5011925;28;20032;-73
2024/01/01 03:08:37;;;;;;;9.15;4.20;;;6.70;99.90;;;;;;5043590;28;20037;-72
2024/01/01 03:11:05;;;;;;;17.65;4.05;;;6.70;99.90;;;;;;5037196;28;20030;-72
2024/01/01 03:13:32;;;;;;;8.88;4.22;;;6.80;99.90;;;;;;5010258;28;20022;-71
2024/01/01 03:15:58;;;;;;;11.23;2.90;;;6.80;99.90;;;;;;5027669;28;20040;-71
2024/01/01 03:18:24;;;;;;;12.98;4.18;;;6.80;99.90;;;;;;5026560;28;20023;-70
2024/01/01 03:20:50;;;;;;;11.15;3.78;;;6.80;99.90;;;;;;5027814;28;20026;-71
2024/01/01 03:23:16;;;;;;;10.10;2.80;;;6.80;99.90;;;;;;5045543;28;20021;-70
2024/01/01 03:25:42;;;;;;;7.22;3.17;;;6.80;99.90;;;;;;5011850;28;20030;-71
2024/01/01 03:28:08;;;;;;;9.25;3.75;;;6.90;99.90;;;;;;5044065;28;20021;-72
2024/01/01 03:30:34;;;;;;;17.83;3.38;;;6.90;99.90;;;;;;5011277;28;20071;-71
2024/01/01 03:33:00;;;;;;;13.88;3.65;;;6.90;99.90;;;;;;5044117;28;20021;-72
2024/01/01 03:35:25;;;;;;;10.02;3.38;;;6.90;99.90;;;;;;5027739;28;20036;-71
2024/01/01 03:37:51;;;;;;;15.77;4.32;;;7.00;99.90;;;;;;5027310;28;20094;-73
2024/01/01 03:40:18;;;;;;;5.72;2.33;;;6.90;99.90;;;;;;5013376;28;20025;-73
2024/01/01 03:42:44;;;;;;;17.95;3.05;;;6.90;99.90;;;;;;5008009;28;20100;-74
2024/01/01 03:45:10;;;;;;;14.88;2.28;;;7.00;99.90;;;;;;4991508;28;20188;-70
2024/01/01 03:47:36;;;;;;;5.18;2.88;;;7.00;99.90;;;;;;5025121;28;20033;-72
2024/01/01 03:50:01;;;;;;;18.95;3.58;;;7.00;99.90;;;;;;5022760;28;20053;-73
2024/01/01 03:52:28;;;;;;;13.05;3.92;;;7.00;99.90;;;;;;5007239;28;20322;-73
2024/01/01 03:54:54;;;;;;;6.55;3.45;;;7.00;99.90;;;;;;5033555;28;20025;-76
2024/01/01 03:57:20;;;;;;;7.95;3.40;;;7.00;99.90;;;;;;5043843;28;20044;-72
2024/01/01 03:59:45;;;;;;;7.97;3.63;;;7.00;99.90;;;;;;5004768;28;20033;-73
2024/01/01 04:02:11;;;;;;;9.52;3.95;;;7.00;99.90;;;;;;5009084;28;20196;-72
2024/01/01 04:04:41;;;;;;;4.82;3.15;;;7.10;99.90;;;;;;5025500;28;20096;-72
2024/01/01 04:07:07;;;;;;;4.28;2.30;;;7.10;99.90;;;;;;5026518;28;20075;-73
2024/01/01 04:09:32;;;;;;;13.65;4.25;;;7.10;99.90;;;;;;5042649;28;20033;-73
2024/01/01 04:11:58;;;;;;;12.32;3.78;;;7.10;99.90;;;;;;5044603;28;20027;-73
2024/01/01 04:14:24;;;;;;;7.88;2.22;;;7.20;99.90;;;;;;5026987;28;20021;-72
2024/01/01 04:16:50;;;;;;;9.35;3.30;;;7.20;99.90;;;;;;5043940;28;20041;-72
2024/01/01 04:19:16;;;;;;;6.45;3.85;;;7.30;99.90;;;;;;5025533;28;20034;-71
2024/01/01 04:21:42;;;;;;;13.05;3.88;;;7.10;99.90;;;;;;5044355;28;20365;-72
2024/01/01 04:24:08;;;;;;;11.07;2.70;;;7.10;99.90;;;;;;5027020;28;20226;-72
2024/01/01 04:26:36;;;;;;;6.72;2.60;;;7.00;99.90;;;;;;5044495;28;20028;-71
2024/01/01 04:29:02;;;;;;;8.10;3.42;;;7.00;99.90;;;;;;5043632;28;20314;-71
2024/01/01 04:31:29;;;;;;;10.48;1.65;;;6.90;99.90;;;;;;5043262;28;20017;-71
2024/01/01 04:33:55;;;;;;;3.78;2.55;;;6.90;99.90;;;;;;5043460;28;20093;-72
2024/01/01 04:36:21;;;;;;;13.73;3.80;;;6.80;99.90;;;;;;5044229;28;20052;-72
2024/01/01 04:38:47;;;;;;;23.38;3.03;;;6.80;99.90;;;;;;5025367;28;20281;-72
2024/01/01 04:41:13;;;;;;;6.68;3.17;;;6.80;99.90;;;;;;5044154;28;20021;-72
2024/01/01 04:43:40;;;;;;;14.93;5.40;;;6.80;99.90;;;;;;5042890;28;20305;-73
2024/01/01 04:46:06;;;;;;;7.95;3.03;;;6.70;99.90;;;;;;5042704;28;20075;-72
2024/01/01 04:48:33;;;;;;;8.25;4.30;;;6.70;99.90;;;;;;5024645;28;20087;-71
2024/01/01 04:50:59;;;;;;;4.55;2.58;;;6.70;99.90;;;;;;5043618;28;20032;-73
2024/01/01 04:53:25;;;;;;;12.57;4.78;;;6.60;99.90;;;;;;5043997;28;20030;-73
2024/01/01 04:55:51;;;;;;;15.77;5.45;;;6.60;99.90;;;;;;5043429;28;20029;-73
2024/01/01 04:58:16;;;;;;;6.85;2.55;;;6.60;99.90;;;;;;5025150;28;20471;-74
2024/01/01 05:00:42;;;;;;;15.07;5.20;;;6.40;99.90;;;;;;5042052;28;20017;-75
2024/01/01 05:03:08;;;;;;;7.18;2.42;;;6.60;99.90;;;;;;5043233;28;20036;-73
2024/01/01 05:05:34;;;;;;;11.88;2.63;;;6.60;99.90;;;;;;5042873;28;20092;-73
2024/01/01 05:08:00;;;;;;;8.38;3.65;;;6.60;99.90;;;;;;5042127;28;20087;-73
2024/01/01 05:10:26;;;;;;;8.13;2.97;;;6.60;99.90;;;;;;5025995;28;20021;-73
2024/01/01 05:12:53;;;;;;;7.97;3.38;;;6.70;99.90;;;;;;5043406;28;20021;-73
2024/01/01 05:15:19;;;;;;;9.15;3.92;;;6.70;99.90;;;;;;5026059;28;20250;-72
2024/01/01 05:17:45;;;;;;;12.52;3.65;;;6.60;99.90;;;;;;5041964;28;20030;-71
2024/01/01 05:20:11;;;;;;;10.40;3.55;;;6.70;99.90;;;;;;5024346;28;20039;-70
2024/01/01 05:22:37;;;;;;;6.40;3.50;;;6.70;99.90;;;;;;5043144;28;20029;-71
2024/01/01 05:25:03;;;;;;;5.35;2.50;;;6.70;99.90;;;;;;5043189;28;20044;-71
2024/01/01 05:27:29;;;;;;;12.30;3.80;;;6.70;99.90;;;;;;5042181;28;20263;-74
2024/01/01 05:29:55;;;;;;;6.82;3.83;;;6.70;99.90;;;;;;5007749;28;20023;-71
2024/01/01 05:32:21;;;;;;;4.22;1.90;;;6.60;99.90;;;;;;5039423;28;20038;-73
2024/01/01 05:34:47;;;;;;;7.00;3.25;;;6.70;99.90;;;;;;5042549;28;20330;-72
2024/01/01 05:37:13;;;;;;;7.82;3.75;;;6.70;99.90;;;;;;5043215;28;20037;-72
2024/01/01 05:39:38;;;;;;;14.52;2.42;;;6.70;99.90;;;;;;5007499;28;20024;-73
2024/01/01 05:42:04;;;;;;;11.07;4.45;;;6.70;99.90;;;;;;5036596;28;20025;-72
2024/01/01 05:44:30;;;;;;;12.30;2.65;;;6.60;99.90;;;;;;5038323;28;20018;-72
2024/01/01 05:46:56;;;;;;;5.18;2.90;;;6.50;99.90;;;;;;5041078;28;20052;-72
2024/01/01 05:49:23;;;;;;;12.57;2.30;;;6.50;99.90;;;;;;5039246;28;20025;-71
2024/01/01 05:51:50;;;;;;;12.18;3.33;;;6.40;99.90;;;;;;5030332;28;20622;-74
2024/01/01 05:54:16;;;;;;;5.60;2.92;;;6.40;99.90;;;;;;5039246;28;20299;-71
2024/01/01 05:56:44;;;;;;;9.68;3.50;;;6.40;99.90;;;;;;5041045;28;20041;-72
2024/01/01 05:59:10;;;;;;;6.35;2.75;;;6.50;99.90;;;;;;5006984;28;20025;-72
2024/01/01 06:01:35;;;;;;;9.20;2.88;;;6.50;99.90;;;;;;5041865;28;20334;-72
2024/01/01 06:04:02;;;;;;;7.88;3.22;;;6.50;99.90;;;;;;5041912;28;20334;-73
2024/01/01 06:06:27;;;;;;;3.47;2.28;;;6.60;99.90;;;;;;5042034;28;20040;-71
2024/01/01 06:08:53;;;;;;;5.68;3.30;;;6.50;99.90;;;;;;5039289;28;20022;-73
2024/01/01 06:11:19;;;;;;;14.07;3.47;;;6.50;99.90;;;;;;5041099;28;20046;-79
2024/01/01 06:13:45;;;;;;;14.60;3.17;;;6.40;99.90;;;;;;5024878;28;20017;-79
2024/01/01 06:16:13;;;;;;;6.63;2.55;;;6.50;99.90;;;;;;5024735;28;20318;-74
2024/01/01 06:18:39;;;;;;;11.65;2.92;;;6.50;99.90;;;;;;5022767;28;20206;-74
2024/01/01 06:21:05;;;;;;;7.88;2.35;;;6.50;99.90;;;;;;5024742;28;20034;-78
2024/01/01 06:23:31;;;;;;;5.10;2.50;;;6.50;99.90;;;;;;5042107;28;20023;-75
2024/01/01 06:25:57;;;;;;;9.50;2.67;;;6.50;99.90;;;;;;5024781;28;20281;-75
2024/01/01 06:28:23;;;;;;;10.68;2.25;;;6.50;99.90;;;;;;5040468;28;20101;-74
2024/01/01 06:30:48;;;;;;;20.55;3.63;;;6.60;99.90;;;;;;5041142;28;20307;-74
2024/01/01 06:33:15;;;;;;;7.45;2.53;;;6.50;99.90;;;;;;5008084;28;20075;-75
2024/01/01 06:35:41;;;;;;;8.02;2.13;;;6.50;99.90;;;;;;5040515;28;20057;-75
2024/01/01 06:38:06;;;;;;;7.55;2.47;;;6.50;99.90;;;;;;5005450;28;20044;-76
2024/01/01 06:40:32;;;;;;;1.67;1.58;;;6.60;99.90;;;;;;5008375;28;20222;-75
2024/01/01 06:42:58;;;;;;;10.57;2.22;;;6.50;99.90;;;;;;5024443;28;20368;-74
2024/01/01 06:45:24;;;;;;;2.22;1.50;;;6.50;99.90;;;;;;5040718;28;20053;-74
2024/01/01 06:47:50;;;;;;;7.22;2.42;;;6.50;99.90;;;;;;5041900;28;20044;-72
2024/01/01 06:50:16;;;;;;;4.00;1.45;;;6.60;99.90;;;;;;5022193;28;20235;-72
2024/01/01 06:52:41;;;;;;;3.40;1.58;;;6.60;99.90;;;;;;5024505;28;20016;-69
2024/01/01 06:55:08;;;;;;;6.78;1.85;;;6.60;99.90;;;;;;5040872;28;20026;-72
2024/01/01 06:57:33;;;;;;;7.47;2.42;;;6.60;99.90;;;;;;5024141;28;20063;-72
2024/01/01 06:59:59;;;;;;;7.10;2.83;;;6.60;99.90;;;;;;5040207;28;20088;-75
2024/01/01 07:02:26;;;;;;;11.25;2.88;;;6.60;99.90;;;;;;5008143;28;20026;-72
2024/01/01 07:04:52;;;;;;;1.88;1.33;;;6.60;99.90;;;;;;5023959;28;20089;-72
2024/01/01 07:07:17;;;;;;;3.55;2.40;;;6.70;99.90;;;;;;5041467;28;20033;-70
2024/01/01 07:09:43;;;;;;;4.07;1.52;;;6.60;99.90;;;;;;5039636;28;20037;-73
2024/01/01 07:12:28;;;;;;;8.70;2.35;;;6.70;99.90;;;;;;4999027;28;20041;-70
2024/01/01 07:14:54;;;;;;;4.30;2.25;;;6.60;99.90;;;;;;5037184;28;20049;-72
2024/01/01 07:17:21;;;;;;;3.40;1.80;;;6.60;99.90;;;;;;5031224;28;20034;-71
2024/01/01 07:19:47;;;;;;;13.05;3.30;;;6.60;99.90;;;;;;5021441;28;20014;-72
2024/01/01 07:22:13;;;;;;;5.43;2.20;;;6.50;99.90;;;;;;5010919;28;20029;-71
2024/01/01 07:24:39;;;;;;;1.88;1.65;;;6.50;99.90;;;;;;5026991;28;20029;-72
2024/01/01 07:27:06;;;;;;;5.80;1.88;;;6.50;99.90;;;;;;5044435;28;20079;-71
2024/01/01 07:29:32;;;;;;;4.90;2.97;;;6.60;99.90;;;;;;5043170;28;20017;-72
2024/01/01 07:31:58;;;;;;;2.83;1.85;;;6.50;99.90;;;;;;5003395;28;20024;-72
2024/01/01 07:34:25;;;;;;;3.55;1.40;;;6.50;99.90;;;;;;5023647;28;20048;-72
2024/01/01 07:36:51;;;;;;;4.22;2.03;;;6.50;99.90;;;;;;5033590;28;20080;-71
2024/01/01 07:39:19;;;;;;;8.13;3.30;;;6.50;99.90;;;;;;5025107;28;20037;-72
2024/01/01 07:41:48;;;;;;;8.27;1.45;;;6.50;99.90;;;;;;5043256;28;20299;-71
2024/01/01 07:44:14;;;;;;;3.80;2.93;;;6.50;99.90;;;;;;5044315;28;20303;-72
2024/01/01 07:46:42;;;;;;;3.17;2.67;;;6.50;99.90;;;;;;5041140;28;20272;-72
2024/01/01 07:49:08;;;;;;;8.43;2.33;;;6.40;99.90;;;;;;5042619;28;20033;-69
2024/01/01 07:51:35;;;;;;;8.57;3.92;;;6.50;99.90;;;;;;5005182;28;20018;-70
2024/01/01 07:54:06;;;;;;;4.63;3.25;;;6.40;99.90;;;;;;5004952;28;20307;-71
2024/01/01 07:56:31;;;;;;;4.88;2.53;;;6.40;99.90;;;;;;5023293;28;20041;-71
2024/01/01 07:58:57;;;;;;;6.03;2.85;;;6.40;99.90;;;;;;5012129;28;20048;-72
2024/01/01 08:01:24;;;;;;;5.18;3.50;;;6.30;99.90;;;;;;5009081;28;20072;-71
2024/01/01 08:03:50;;;;;;;6.50;2.15;;;6.30;99.90;;;;;;5023426;28;20029;-71
2024/01/01 08:06:20;;;;;;;7.03;3.20;;;6.30;99.90;;;;;;5006741;28;20028;-71
2024/01/01 08:08:46;;;;;;;13.60;2.35;;;6.30;99.90;;;;;;5029487;28;20032;-71
2024/01/01 08:11:12;;;;;;;7.57;3.42;;;6.40;99.90;;;;;;5021108;28;20041;-72
2024/01/01 08:13:37;;;;;;;8.65;2.60;;;6.40;99.90;;;;;;5021754;28;20067;-72
2024/01/01 08:16:04;;;;;;;6.57;2.33;;;6.40;99.90;;;;;;5023502;28;20034;-71
2024/01/01 08:18:29;;;;;;;7.68;2.80;;;6.40;99.90;;;;;;5039831;28;20063;-71
2024/01/01 08:20:55;;;;;;;6.47;3.47;;;6.30;99.90;;;;;;5026136;28;20033;-72
2024/01/01 08:23:21;;;;;;;5.22;4.63;;;6.30;99.90;;;;;;5027518;28;20092;-71
2024/01/01 08:25:47;;;;;;;10.23;4.70;;;6.30;99.90;;;;;;5022477;28;20026;-71
2024/01/01 08:28:12;;;;;;;7.60;4.72;;;6.40;99.90;;;;;;5017019;28;20025;-72
2024/01/01 08:30:39;;;;;;;9.05;6.43;;;6.40;99.90;;;;;;5025922;28;20080;-72
2024/01/01 08:33:06;;;;;;;12.80;7.05;;;6.40;99.90;;;;;;5025792;28;20025;-71
2024/01/01 08:35:32;;;;;;;11.60;5.40;;;6.40;99.90;;;;;;5026451;28;20108;-71
2024/01/01 08:37:58;;;;;;;11.30;5.68;;;6.30;99.90;;;;;;5026014;28;20040;-71
2024/01/01 08:40:24;;;;;;;8.82;6.28;;;6.40;99.90;;;;;;5040397;28;20092;-70
2024/01/01 08:42:52;;;;;;;5.90;3.70;;;6.40;99.90;;;;;;5025737;28;20045;-71
2024/01/01 08:45:20;;;;;;;8.65;3.85;;;6.40;99.90;;;;;;5043435;28;20074;-71
2024/01/01 08:47:46;;;;;;;10.25;4.53;;;6.50;99.90;;;;;;5032249;28;20066;-70
2024/01/01 08:50:13;;;;;;;11.70;6.40;;;6.50;99.90;;;;;;5038979;28;20030;-71
2024/01/01 08:52:39;;;;;;;8.73;4.18;;;6.50;99.90;;;;;;5006163;28;20323;-73
2024/01/01 08:55:05;;;;;;;5.65;3.92;;;6.60;99.90;;;;;;5022465;28;20089;-71
2024/01/01 08:57:31;;;;;;;14.98;2.92;;;6.60;99.90;;;;;;5023263;28;20099;-71
2024/01/01 08:59:57;;;;;;;5.38;2.63;;;6.70;99.90;;;;;;5036875;28;20041;-71
2024/01/01 09:02:23;;;;;;;9.80;4.13;;;6.70;99.90;;;;;;5019704;28;20056;-71
2024/01/01 09:04:49;;;;;;;7.35;4.63;;;6.70;99.90;;;;;;5023427;28;20030;-73
2024/01/01 09:07:15;;;;;;;5.72;4.07;;;6.60;99.90;;;;;;5005111;28;20046;-72
2024/01/01 09:09:41;;;;;;;2.58;2.38;;;6.70;99.90;;;;;;5019733;28;20092;-71
2024/01/01 09:12:08;;;;;;;6.28;3.03;;;6.70;99.90;;;;;;5021525;28;20358;-71
2024/01/01 09:14:38;;;;;;;5.25;4.85;;;6.70;99.90;;;;;;5022054;28;20040;-71
2024/01/01 09:17:07;;;;;;;8.57;3.92;;;6.70;99.90;;;;;;5025186;28;20045;-71
2024/01/01 09:19:33;;;;;;;6.97;1.58;;;6.70;99.90;;;;;;5041964;28;20032;-71
2024/01/01 09:22:00;;;;;;;7.18;3.47;;;6.80;99.90;;;;;;5007169;28;20109;-73
2024/01/01 09:24:26;;;;;;;8.50;5.25;;;6.80;99.90;;;;;;5005595;28;20089;-71
2024/01/01 09:26:52;;;;;;;28.83;18.58;;;6.90;99.90;;;;;;4989217;28;20042;-72
2024/01/01 09:29:17;;;;;;;6.93;4.32;;;7.00;99.90;;;;;;5030053;28;20246;-72
2024/01/01 09:31:43;;;;;;;4.88;1.98;;;7.10;99.90;;;;;;5006865;28;20076;-69
2024/01/01 09:34:09;;;;;;;5.45;3.22;;;7.10;99.90;;;;;;5020949;28;20033;-73
2024/01/01 09:36:35;;;;;;;3.13;1.90;;;7.40;99.90;;;;;;5021300;28;20050;-70
2024/01/01 09:39:01;;;;;;;9.02;2.30;;;7.60;99.90;;;;;;5031042;28;20053;-71
2024/01/01 09:41:27;;;;;;;2.85;2.42;;;8.10;99.90;;;;;;5042635;28;20043;-73
2024/01/01 09:43:54;;;;;;;6.80;2.15;;;8.20;99.90;;;;;;5043105;28;20103;-71
2024/01/01 09:46:20;;;;;;;6.38;2.25;;;8.50;99.90;;;;;;5025573;28;20590;-71
2024/01/01 09:48:46;;;;;;;7.80;2.03;;;8.50;99.90;;;;;;5007474;28;20027;-70
2024/01/01 09:51:13;;;;;;;6.45;2.65;;;8.80;99.90;;;;;;5009441;28;20306;-70
2024/01/01 09:53:39;;;;;;;12.82;3.83;;;9.20;99.90;;;;;;5043054;28;20028;-71
2024/01/01 09:56:06;;;;;;;8.27;4.35;;;9.30;99.90;;;;;;5041440;28;20044;-71
2024/01/01 09:58:42;;;;;;;4.95;1.77;;;9.50;99.90;;;;;;5038472;28;20021;-71
2024/01/01 10:01:12;;;;;;;7.15;2.25;;;9.50;99.90;;;;;;5005617;28;20045;-71
2024/01/01 10:03:38;;;;;;;;;;;8.80;99.90;;;;;;5027704;28;20028;-70
2024/01/01 10:06:11;;;;;;;3.22;2.53;;;8.20;99.90;;;;;;5025124;28;19901;-71
2024/01/01 10:08:38;;;;;;;13.57;3.25;;;8.00;99.90;;;;;;5040314;28;20029;-71
2024/01/01 10:11:20;;;;;;;11.07;2.50;;;7.70;99.90;;;;;;5008860;28;20028;-71
2024/01/01 10:13:46;;;;;;;4.78;2.72;;;7.70;99.90;;;;;;5025026;28;20045;-71
2024/01/01 10:16:26;;;;;;;9.77;3.33;;;7.70;99.90;;;;;;5025188;28;20033;-71
2024/01/01 10:18:55;;;;;;;8.13;3.65;;;7.70;99.90;;;;;;5007341;28;20033;-71
2024/01/01 10:21:26;;;;;;;5.43;2.28;;;8.10;99.90;;;;;;5025167;28;20018;-70
2024/01/01 10:23:52;;;;;;;8.27;5.65;;;7.70;99.90;;;;;;5040520;28;20025;-70
2024/01/01 10:26:18;;;;;;;9.27;4.10;;;7.80;99.90;;;;;;5033868;28;20028;-70
2024/01/01 10:28:44;;;;;;;6.25;2.17;;;7.80;99.90;;;;;;5023975;28;20025;-70
2024/01/01 10:31:12;;;;;;;7.78;3.05;;;7.80;99.90;;;;;;5024784;28;20017;-71
2024/01/01 10:33:40;;;;;;;4.10;3.25;;;7.80;99.90;;;;;;5024574;28;20028;-71
2024/01/01 10:36:06;;;;;;;9.27;3.65;;;7.60;99.90;;;;;;5025316;28;20038;-70
2024/01/01 10:38:34;;;;;;;9.10;4.55;;;7.70;99.90;;;;;;5039760;28;20088;-70
2024/01/01 10:41:01;;;;;;;7.18;3.13;;;7.80;99.90;;;;;;5024905;28;20025;-73
2024/01/01 10:43:29;;;;;;;5.40;2.03;;;7.90;99.90;;;;;;5042442;28;20025;-70
2024/01/01 10:46:03;;;;;;;9.73;2.78;;;7.90;99.90;;;;;;5025211;28;20026;-70
2024/01/01 10:48:31;;;;;;;8.55;3.42;;;7.90;99.90;;;;;;5023539;28;20488;-70
2024/01/01 10:51:16;;;;;;;12.77;3.97;;;7.80;99.90;;;;;;5012132;28;20021;-70
2024/01/01 10:53:55;;;;;;;7.57;2.90;;;7.80;99.90;;;;;;5045752;28;20206;-71
2024/01/01 10:56:27;;;;;;;7.68;3.33;;;7.80;99.90;;;;;;5045999;28;20041;-72
2024/01/01 10:59:19;;;;;;;14.27;4.15;;;7.80;99.90;;;;;;5026424;28;20026;-70
2024/01/01 11:01:50;;;;;;;17.25;5.28;;;7.80;99.90;;;;;;5045304;28;20029;-73
2024/01/01 11:04:20;;;;;;;6.15;3.65;;;7.80;99.90;;;;;;5007859;28;20030;-71
2024/01/01 11:06:46;;;;;;;7.25;2.88;;;7.90;99.90;;;;;;5007390;28;20022;-71
2024/01/01 11:09:21;;;;;;;12.60;2.75;;;7.90;99.90;;;;;;5032253;28;20045;-72
2024/01/01 11:11:54;;;;;;;9.65;4.78;;;8.00;99.90;;;;;;5044959;28;20032;-70
2024/01/01 11:14:31;;;;;;;30.38;13.70;;;8.10;99.90;;;;;;5027547;28;20053;-73
2024/01/01 11:17:01;;;;;;;18.15;9.88;;;8.10;99.90;;;;;;5027427;28;20041;-72
2024/01/01 11:19:36;;;;;;;;;;;8.20;99.90;;;;;;5007150;28;20049;-71
2024/01/01 11:22:20;;;;;;;6.90;5.50;;;8.20;99.90;;;;;;5023353;28;19906;-70
2024/01/01 11:24:50;;;;;;;4.03;3.63;;;8.20;99.90;;;;;;5041377;28;20346;-72
2024/01/01 11:27:23;;;;;;;13.68;4.20;;;8.20;99.90;;;;;;5010888;28;20017;-71
2024/01/01 11:29:49;;;;;;;14.00;3.05;;;8.30;99.90;;;;;;4980061;28;20033;-71
2024/01/01 11:32:18;;;;;;;9.18;3.58;;;8.30;99.90;;;;;;5023637;28;20198;-70
2024/01/01 11:34:44;;;;;;;6.72;3.00;;;8.30;99.90;;;;;;5023936;28;20357;-69
2024/01/01 11:37:18;;;;;;;10.55;3.97;;;8.30;99.90;;;;;;5025100;28;20057;-70
2024/01/01 11:39:44;;;;;;;15.68;3.30;;;8.40;99.90;;;;;;5017659;28;20076;-72
2024/01/01 11:42:17;;;;;;;12.52;2.90;;;8.50;99.90;;;;;;5015330;28;20025;-72
2024/01/01 11:44:43;;;;;;;12.07;5.13;;;8.70;99.90;;;;;;5006990;28;20061;-72
2024/01/01 11:47:09;;;;;;;4.70;3.40;;;8.70;99.90;;;;;;5006088;28;20022;-71
2024/01/01 11:49:34;;;;;;;11.90;6.28;;;8.70;99.90;;;;;;5016921;28;20034;-72
2024/01/01 11:52:04;;;;;;;15.02;3.70;;;8.70;99.90;;;;;;5010210;28;20056;-72
2024/01/01 11:54:30;;;;;;;4.80;2.88;;;8.60;99.90;;;;;;5010039;28;20055;-72
2024/01/01 11:56:56;;;;;;;7.32;3.35;;;8.60;99.90;;;;;;5026371;28;20103;-72
2024/01/01 11:59:24;;;;;;;7.13;3.83;;;8.50;99.90;;;;;;5038154;28;20369;-73
2024/01/01 12:01:50;;;;;;;8.13;3.25;;;8.70;99.90;;;;;;5022930;28;20021;-71
2024/01/01 12:04:17;;;;;;;7.20;3.72;;;8.60;99.90;;;;;;5024833;28;20112;-71
2024/01/01 12:06:48;;;;;;;11.95;4.95;;;8.70;99.90;;;;;;5043506;28;20079;-71
2024/01/01 12:09:14;;;;;;;6.38;4.10;;;8.60;99.90;;;;;;5033655;28;20029;-70
2024/01/01 12:11:42;;;;;;;7.32;4.10;;;8.60;99.90;;;;;;5042080;28;20080;-71
2024/01/01 12:14:09;;;;;;;5.55;3.25;;;8.50;99.90;;;;;;5043210;28;20037;-73
2024/01/01 12:16:36;;;;;;;22.00;5.85;;;8.60;99.90;;;;;;5025245;28;20033;-75
2024/01/01 12:19:19;;;;;;;8.43;4.28;;;8.50;99.90;;;;;;5039983;28;20280;-70
2024/01/01 12:21:46;;;;;;;8.77;6.25;;;8.40;99.90;;;;;;5022854;28;20056;-72
2024/01/01 12:24:16;;;;;;;13.20;5.20;;;8.40;99.90;;;;;;5024847;28;20089;-71
2024/01/01 12:26:44;;;;;;;15.45;4.55;;;8.40;99.90;;;;;;4994316;28;20067;-72
2024/01/01 12:29:14;;;;;;;12.07;4.47;;;8.40;99.90;;;;;;5022408;28;20041;-72
2024/01/01 12:31:42;;;;;;;35.03;6.13;;;8.40;99.90;;;;;;5035040;28;20067;-70
2024/01/01 12:34:15;;;;;;;10.00;4.88;;;8.30;99.90;;;;;;5023944;28;20484;-72
2024/01/01 12:36:44;;;;;;;12.05;5.50;;;8.90;99.90;;;;;;5026722;28;20048;-70
2024/01/01 12:39:10;;;;;;;12.88;6.55;;;8.30;99.90;;;;;;5019885;28;20217;-71
2024/01/01 12:41:37;;;;;;;11.77;4.82;;;8.30;99.90;;;;;;5003787;28;20097;-69
2024/01/01 12:44:03;;;;;;;20.00;6.88;;;8.30;99.90;;;;;;5029668;28;20071;-70
2024/01/01 12:46:30;;;;;;;17.88;6.93;;;8.30;99.90;;;;;;5003790;28;20124;-71
2024/01/01 12:48:55;;;;;;;20.40;10.30;;;8.20;99.90;;;;;;5007708;28;20075;-71
2024/01/01 12:51:24;;;;;;;21.60;9.32;;;8.30;99.90;;;;;;4991595;28;20100;-70